sensor_id;sensor_type;location;lat;lon;timestamp;temperature;humidity
4107;DHT22;21906;50.812;7.132;2023-06-05T00:01:11;17.50;48.00
4107;DHT22;21906;50.812;7.132;2023-06-05T00:03:37;17.40;48.30
4107;DHT22;21906;50.812;7.132;2023-06-05T00:06:05;17.40;48.80
4107;DHT22;21906;50.812;7.132;2023-06-05T00:08:32;17.40;49.30
4107;DHT22;21906;50.812;7.132;2023-06-05T00:10:57;17.40;49.60
4107;DHT22;21906;50.812;7.132;2023-06-05T00:13:23;17.30;49.40
4107;DHT22;21906;50.812;7.132;2023-06-05T00:15:48;17.20;49.70
4107;DHT22;21906;50.812;7.132;2023-06-05T00:18:15;17.20;49.90
4107;DHT22;21906;50.812;7.132;2023-06-05T00:20:43;17.10;50.10
4107;DHT22;21906;50.812;7.132;2023-06-05T00:23:09;17.10;50.10
4107;DHT22;21906;50.812;7.132;2023-06-05T00:25:37;17.00;50.50
4107;DHT22;21906;50.812;7.132;2023-06-05T00:28:02;17.00;50.50
4107;DHT22;21906;50.812;7.132;2023-06-05T00:30:28;16.90;50.90
4107;DHT22;21906;50.812;7.132;2023-06-05T00:32:55;16.80;51.10
4107;DHT22;21906;50.812;7.132;2023-06-05T00:35:20;16.70;51.70
4107;DHT22;21906;50.812;7.132;2023-06-05T00:37:46;16.70;52.20
4107;DHT22;21906;50.812;7.132;2023-06-05T00:40:12;16.70;52.30
4107;DHT22;21906;50.812;7.132;2023-06-05T00:42:38;16.60;52.20
4107;DHT22;21906;50.812;7.132;2023-06-05T00:45:04;16.60;52.20
4107;DHT22;21906;50.812;7.132;2023-06-05T00:47:30;16.60;52.40
4107;DHT22;21906;50.812;7.132;2023-06-05T00:49:57;16.50;52.60
4107;DHT22;21906;50.812;7.132;2023-06-05T00:52:23;16.50;52.50
4107;DHT22;21906;50.812;7.132;2023-06-05T00:54:50;16.50;52.00
4107;DHT22;21906;50.812;7.132;2023-06-05T00:57:16;16.40;52.40
4107;DHT22;21906;50.812;7.132;2023-06-05T00:59:41;16.40;52.50
4107;DHT22;21906;50.812;7.132;2023-06-05T01:02:10;16.40;52.20
4107;DHT22;21906;50.812;7.132;2023-06-05T01:04:41;16.30;52.30
4107;DHT22;21906;50.812;7.132;2023-06-05T01:07:10;16.20;53.10
4107;DHT22;21906;50.812;7.132;2023-06-05T01:09:37;16.20;53.40
4107;DHT22;21906;50.812;7.132;2023-06-05T01:12:17;16.10;53.50
4107;DHT22;21906;50.812;7.132;2023-06-05T01:14:44;16.10;53.20
4107;DHT22;21906;50.812;7.132;2023-06-05T01:17:13;16.10;53.30
4107;DHT22;21906;50.812;7.132;2023-06-05T01:19:40;16.10;53.50
4107;DHT22;21906;50.812;7.132;2023-06-05T01:22:06;16.00;53.70
4107;DHT22;21906;50.812;7.132;2023-06-05T01:24:31;16.00;54.20
4107;DHT22;21906;50.812;7.132;2023-06-05T01:27:18;16.00;54.30
4107;DHT22;21906;50.812;7.132;2023-06-05T01:29:55;16.00;54.60
4107;DHT22;21906;50.812;7.132;2023-06-05T01:32:49;15.90;54.40
4107;DHT22;21906;50.812;7.132;2023-06-05T01:35:19;15.90;54.40
4107;DHT22;21906;50.812;7.132;2023-06-05T01:37:47;15.90;54.60
4107;DHT22;21906;50.812;7.132;2023-06-05T01:40:20;15.80;54.80
4107;DHT22;21906;50.812;7.132;2023-06-05T01:42:46;15.80;54.80
4107;DHT22;21906;50.812;7.132;2023-06-05T01:45:13;15.80;54.80
4107;DHT22;21906;50.812;7.132;2023-06-05T01:47:40;15.80;54.80
4107;DHT22;21906;50.812;7.132;2023-06-05T01:50:07;15.70;54.70
4107;DHT22;21906;50.812;7.132;2023-06-05T01:52:37;15.60;55.00
4107;DHT22;21906;50.812;7.132;2023-06-05T01:55:06;15.60;55.20
4107;DHT22;21906;50.812;7.132;2023-06-05T01:57:31;15.60;55.60
4107;DHT22;21906;50.812;7.132;2023-06-05T01:59:59;15.60;55.70
4107;DHT22;21906;50.812;7.132;2023-06-05T02:02:27;15.50;55.70
4107;DHT22;21906;50.812;7.132;2023-06-05T02:04:54;15.50;55.80
4107;DHT22;21906;50.812;7.132;2023-06-05T02:07:20;15.50;55.60
4107;DHT22;21906;50.812;7.132;2023-06-05T02:09:47;15.40;56.00
4107;DHT22;21906;50.812;7.132;2023-06-05T02:12:12;15.40;56.30
4107;DHT22;21906;50.812;7.132;2023-06-05T02:14:39;15.40;56.30
4107;DHT22;21906;50.812;7.132;2023-06-05T02:17:10;15.40;56.30
4107;DHT22;21906;50.812;7.132;2023-06-05T02:19:39;15.40;56.50
4107;DHT22;21906;50.812;7.132;2023-06-05T02:22:04;15.30;56.70
4107;DHT22;21906;50.812;7.132;2023-06-05T02:24:30;15.30;56.90
4107;DHT22;21906;50.812;7.132;2023-06-05T02:26:56;15.20;57.10
4107;DHT22;21906;50.812;7.132;2023-06-05T02:29:22;15.20;57.20
4107;DHT22;21906;50.812;7.132;2023-06-05T02:31:48;15.20;57.10
4107;DHT22;21906;50.812;7.132;2023-06-05T02:34:14;15.10;57.10
4107;DHT22;21906;50.812;7.132;2023-06-05T02:36:42;15.10;57.40
4107;DHT22;21906;50.812;7.132;2023-06-05T02:39:11;15.00;57.50
4107;DHT22;21906;50.812;7.132;2023-06-05T02:41:37;15.00;57.60
4107;DHT22;21906;50.812;7.132;2023-06-05T02:44:03;15.00;57.60
4107;DHT22;21906;50.812;7.132;2023-06-05T02:46:28;15.00;57.60
4107;DHT22;21906;50.812;7.132;2023-06-05T02:48:54;14.90;57.70
4107;DHT22;21906;50.812;7.132;2023-06-05T02:51:20;14.90;58.00
4107;DHT22;21906;50.812;7.132;2023-06-05T02:53:45;14.80;58.30
4107;DHT22;21906;50.812;7.132;2023-06-05T02:56:11;14.80;58.70
4107;DHT22;21906;50.812;7.132;2023-06-05T02:58:38;14.80;58.90
4107;DHT22;21906;50.812;7.132;2023-06-05T03:01:05;14.70;58.90
4107;DHT22;21906;50.812;7.132;2023-06-05T03:03:33;14.70;59.00
4107;DHT22;21906;50.812;7.132;2023-06-05T03:06:00;14.70;58.90
4107;DHT22;21906;50.812;7.132;2023-06-05T03:08:36;14.60;59.10
4107;DHT22;21906;50.812;7.132;2023-06-05T03:11:05;14.60;59.20
4107;DHT22;21906;50.812;7.132;2023-06-05T03:13:31;14.60;59.30
4107;DHT22;21906;50.812;7.132;2023-06-05T03:15:58;14.50;59.40
4107;DHT22;21906;50.812;7.132;2023-06-05T03:18:27;14.40;59.80
4107;DHT22;21906;50.812;7.132;2023-06-05T03:20:53;14.40;59.80
4107;DHT22;21906;50.812;7.132;2023-06-05T03:23:23;14.40;60.00
4107;DHT22;21906;50.812;7.132;2023-06-05T03:25:50;14.40;59.90
4107;DHT22;21906;50.812;7.132;2023-06-05T03:28:17;14.40;60.20
4107;DHT22;21906;50.812;7.132;2023-06-05T03:30:43;14.40;60.20
4107;DHT22;21906;50.812;7.132;2023-06-05T03:33:10;14.40;60.00
4107;DHT22;21906;50.812;7.132;2023-06-05T03:35:35;14.30;60.00
4107;DHT22;21906;50.812;7.132;2023-06-05T03:38:02;14.40;59.80
4107;DHT22;21906;50.812;7.132;2023-06-05T03:40:28;14.30;59.70
4107;DHT22;21906;50.812;7.132;2023-06-05T03:42:54;14.30;59.70
4107;DHT22;21906;50.812;7.132;2023-06-05T03:45:20;14.30;59.70
4107;DHT22;21906;50.812;7.132;2023-06-05T03:47:45;14.30;59.90
4107;DHT22;21906;50.812;7.132;2023-06-05T03:50:14;14.30;60.00
4107;DHT22;21906;50.812;7.132;2023-06-05T03:52:40;14.30;60.20
4107;DHT22;21906;50.812;7.132;2023-06-05T03:55:07;14.30;60.40
4107;DHT22;21906;50.812;7.132;2023-06-05T03:57:36;14.20;60.40
4107;DHT22;21906;50.812;7.132;2023-06-05T04:00:05;14.30;60.50
4107;DHT22;21906;50.812;7.132;2023-06-05T04:02:35;14.30;60.30
4107;DHT22;21906;50.812;7.132;2023-06-05T04:05:01;14.30;60.50
4107;DHT22;21906;50.812;7.132;2023-06-05T04:07:29;14.30;60.90
4107;DHT22;21906;50.812;7.132;2023-06-05T04:09:55;14.30;60.80
4107;DHT22;21906;50.812;7.132;2023-06-05T04:12:21;14.30;61.10
4107;DHT22;21906;50.812;7.132;2023-06-05T04:14:47;14.40;61.10
4107;DHT22;21906;50.812;7.132;2023-06-05T04:17:13;14.40;61.10
4107;DHT22;21906;50.812;7.132;2023-06-05T04:19:41;14.40;61.30
4107;DHT22;21906;50.812;7.132;2023-06-05T04:22:07;14.30;61.60
4107;DHT22;21906;50.812;7.132;2023-06-05T04:24:32;14.30;61.50
4107;DHT22;21906;50.812;7.132;2023-06-05T04:26:58;14.40;61.50
4107;DHT22;21906;50.812;7.132;2023-06-05T04:29:26;14.40;61.70
4107;DHT22;21906;50.812;7.132;2023-06-05T04:31:52;14.40;61.80
4107;DHT22;21906;50.812;7.132;2023-06-05T04:34:18;14.40;61.80
4107;DHT22;21906;50.812;7.132;2023-06-05T04:36:43;14.60;61.70
4107;DHT22;21906;50.812;7.132;2023-06-05T04:39:09;14.60;61.80
4107;DHT22;21906;50.812;7.132;2023-06-05T04:41:43;14.70;61.60
4107;DHT22;21906;50.812;7.132;2023-06-05T04:44:14;14.70;61.00
4107;DHT22;21906;50.812;7.132;2023-06-05T04:46:45;14.80;60.50
4107;DHT22;21906;50.812;7.132;2023-06-05T04:49:12;14.80;60.30
4107;DHT22;21906;50.812;7.132;2023-06-05T04:51:38;14.90;60.20
4107;DHT22;21906;50.812;7.132;2023-06-05T04:54:04;14.90;59.90
4107;DHT22;21906;50.812;7.132;2023-06-05T04:56:31;14.90;59.80
4107;DHT22;21906;50.812;7.132;2023-06-05T04:58:58;14.90;59.90
4107;DHT22;21906;50.812;7.132;2023-06-05T05:01:25;14.90;59.90
4107;DHT22;21906;50.812;7.132;2023-06-05T05:03:50;14.90;59.90
4107;DHT22;21906;50.812;7.132;2023-06-05T05:06:16;14.90;60.00
4107;DHT22;21906;50.812;7.132;2023-06-05T05:08:43;14.90;60.10
4107;DHT22;21906;50.812;7.132;2023-06-05T05:11:12;14.90;59.90
4107;DHT22;21906;50.812;7.132;2023-06-05T05:13:38;15.00;60.10
4107;DHT22;21906;50.812;7.132;2023-06-05T05:16:04;15.00;60.40
4107;DHT22;21906;50.812;7.132;2023-06-05T05:18:31;15.10;60.20
4107;DHT22;21906;50.812;7.132;2023-06-05T05:20:56;15.10;59.90
4107;DHT22;21906;50.812;7.132;2023-06-05T05:23:22;15.10;60.00
4107;DHT22;21906;50.812;7.132;2023-06-05T05:25:48;15.20;60.30
4107;DHT22;21906;50.812;7.132;2023-06-05T05:28:13;15.30;60.10
4107;DHT22;21906;50.812;7.132;2023-06-05T05:30:39;15.30;59.90
4107;DHT22;21906;50.812;7.132;2023-06-05T05:33:05;15.40;59.80
4107;DHT22;21906;50.812;7.132;2023-06-05T05:35:30;15.40;59.80
4107;DHT22;21906;50.812;7.132;2023-06-05T05:37:57;15.50;59.70
4107;DHT22;21906;50.812;7.132;2023-06-05T05:40:22;15.40;59.80
4107;DHT22;21906;50.812;7.132;2023-06-05T05:42:48;15.50;60.00
4107;DHT22;21906;50.812;7.132;2023-06-05T05:45:13;15.50;59.90
4107;DHT22;21906;50.812;7.132;2023-06-05T05:47:39;15.50;59.80
4107;DHT22;21906;50.812;7.132;2023-06-05T05:50:06;15.60;59.70
4107;DHT22;21906;50.812;7.132;2023-06-05T05:52:32;15.70;59.70
4107;DHT22;21906;50.812;7.132;2023-06-05T05:54:58;15.70;59.70
4107;DHT22;21906;50.812;7.132;2023-06-05T05:57:25;15.80;59.60
4107;DHT22;21906;50.812;7.132;2023-06-05T05:59:50;15.80;58.70
4107;DHT22;21906;50.812;7.132;2023-06-05T06:02:16;15.80;58.50
4107;DHT22;21906;50.812;7.132;2023-06-05T06:04:43;15.90;58.50
4107;DHT22;21906;50.812;7.132;2023-06-05T06:07:12;16.00;58.00
4107;DHT22;21906;50.812;7.132;2023-06-05T06:09:37;16.00;57.80
4107;DHT22;21906;50.812;7.132;2023-06-05T06:12:04;16.10;57.70
4107;DHT22;21906;50.812;7.132;2023-06-05T06:14:32;16.10;57.60
4107;DHT22;21906;50.812;7.132;2023-06-05T06:16:57;16.10;57.40
4107;DHT22;21906;50.812;7.132;2023-06-05T06:19:23;16.30;57.30
4107;DHT22;21906;50.812;7.132;2023-06-05T06:21:53;16.40;56.90
4107;DHT22;21906;50.812;7.132;2023-06-05T06:24:18;16.50;56.60
4107;DHT22;21906;50.812;7.132;2023-06-05T06:26:48;16.60;56.40
4107;DHT22;21906;50.812;7.132;2023-06-05T06:29:24;16.60;56.20
4107;DHT22;21906;50.812;7.132;2023-06-05T06:31:50;16.80;56.60
4107;DHT22;21906;50.812;7.132;2023-06-05T06:34:16;16.90;55.70
4107;DHT22;21906;50.812;7.132;2023-06-05T06:36:42;16.90;55.50
4107;DHT22;21906;50.812;7.132;2023-06-05T06:39:10;17.00;55.00
4107;DHT22;21906;50.812;7.132;2023-06-05T06:41:36;17.00;55.10
4107;DHT22;21906;50.812;7.132;2023-06-05T06:44:02;17.10;55.30
4107;DHT22;21906;50.812;7.132;2023-06-05T06:46:29;17.20;54.90
4107;DHT22;21906;50.812;7.132;2023-06-05T06:48:55;17.20;55.00
4107;DHT22;21906;50.812;7.132;2023-06-05T06:51:21;17.20;54.80
4107;DHT22;21906;50.812;7.132;2023-06-05T06:53:50;17.20;55.00
4107;DHT22;21906;50.812;7.132;2023-06-05T06:56:16;17.20;54.60
4107;DHT22;21906;50.812;7.132;2023-06-05T06:58:43;17.30;55.00
4107;DHT22;21906;50.812;7.132;2023-06-05T07:01:09;17.40;55.00
4107;DHT22;21906;50.812;7.132;2023-06-05T07:03:36;17.50;54.70
4107;DHT22;21906;50.812;7.132;2023-06-05T07:06:03;17.50;54.90
4107;DHT22;21906;50.812;7.132;2023-06-05T07:08:29;17.60;54.80
4107;DHT22;21906;50.812;7.132;2023-06-05T07:10:54;17.80;54.70
4107;DHT22;21906;50.812;7.132;2023-06-05T07:13:21;17.80;54.50
4107;DHT22;21906;50.812;7.132;2023-06-05T07:15:47;17.80;54.50
4107;DHT22;21906;50.812;7.132;2023-06-05T07:18:13;17.60;54.70
4107;DHT22;21906;50.812;7.132;2023-06-05T07:20:38;17.60;54.40
4107;DHT22;21906;50.812;7.132;2023-06-05T07:23:04;17.80;54.20
4107;DHT22;21906;50.812;7.132;2023-06-05T07:25:30;17.90;54.40
4107;DHT22;21906;50.812;7.132;2023-06-05T07:27:55;17.80;54.10
4107;DHT22;21906;50.812;7.132;2023-06-05T07:30:21;17.90;54.70
4107;DHT22;21906;50.812;7.132;2023-06-05T07:32:47;18.00;54.50
4107;DHT22;21906;50.812;7.132;2023-06-05T07:35:13;17.90;53.80
4107;DHT22;21906;50.812;7.132;2023-06-05T07:37:39;17.90;54.10
4107;DHT22;21906;50.812;7.132;2023-06-05T07:40:06;18.20;53.40
4107;DHT22;21906;50.812;7.132;2023-06-05T07:42:31;18.20;52.40
4107;DHT22;21906;50.812;7.132;2023-06-05T07:44:57;18.20;52.60
4107;DHT22;21906;50.812;7.132;2023-06-05T07:47:23;18.30;52.50
4107;DHT22;21906;50.812;7.132;2023-06-05T07:50:01;18.30;52.30
4107;DHT22;21906;50.812;7.132;2023-06-05T07:52:30;18.40;52.80
4107;DHT22;21906;50.812;7.132;2023-06-05T07:54:56;18.40;53.40
4107;DHT22;21906;50.812;7.132;2023-06-05T07:57:22;18.60;52.90
4107;DHT22;21906;50.812;7.132;2023-06-05T07:59:50;18.70;51.70
4107;DHT22;21906;50.812;7.132;2023-06-05T08:02:17;18.80;51.70
4107;DHT22;21906;50.812;7.132;2023-06-05T08:04:43;18.80;50.80
4107;DHT22;21906;50.812;7.132;2023-06-05T08:07:09;18.90;50.20
4107;DHT22;21906;50.812;7.132;2023-06-05T08:09:35;19.00;50.20
4107;DHT22;21906;50.812;7.132;2023-06-05T08:12:03;19.10;50.30
4107;DHT22;21906;50.812;7.132;2023-06-05T08:14:28;19.00;50.70
4107;DHT22;21906;50.812;7.132;2023-06-05T08:16:54;19.10;50.90
4107;DHT22;21906;50.812;7.132;2023-06-05T08:19:21;19.20;51.00
4107;DHT22;21906;50.812;7.132;2023-06-05T08:21:49;19.30;51.10
4107;DHT22;21906;50.812;7.132;2023-06-05T08:24:15;19.40;49.00
4107;DHT22;21906;50.812;7.132;2023-06-05T08:26:40;19.40;49.10
4107;DHT22;21906;50.812;7.132;2023-06-05T08:29:06;19.50;49.40
4107;DHT22;21906;50.812;7.132;2023-06-05T08:31:32;19.50;49.70
4107;DHT22;21906;50.812;7.132;2023-06-05T08:33:59;19.40;51.00
4107;DHT22;21906;50.812;7.132;2023-06-05T08:36:25;19.50;49.50
4107;DHT22;21906;50.812;7.132;2023-06-05T08:38:51;19.50;49.20
4107;DHT22;21906;50.812;7.132;2023-06-05T08:41:16;19.70;49.00
4107;DHT22;21906;50.812;7.132;2023-06-05T08:43:42;19.80;48.20
4107;DHT22;21906;50.812;7.132;2023-06-05T08:46:10;20.00;48.20
4107;DHT22;21906;50.812;7.132;2023-06-05T08:48:45;20.00;48.00
4107;DHT22;21906;50.812;7.132;2023-06-05T08:51:15;20.10;48.00
4107;DHT22;21906;50.812;7.132;2023-06-05T08:53:42;20.20;48.30
4107;DHT22;21906;50.812;7.132;2023-06-05T08:56:11;20.30;47.50
4107;DHT22;21906;50.812;7.132;2023-06-05T08:58:37;20.40;47.40
4107;DHT22;21906;50.812;7.132;2023-06-05T09:01:03;20.50;46.60
4107;DHT22;21906;50.812;7.132;2023-06-05T09:03:29;20.50;46.80
4107;DHT22;21906;50.812;7.132;2023-06-05T09:05:55;20.50;48.40
4107;DHT22;21906;50.812;7.132;2023-06-05T09:08:31;20.60;47.10
4107;DHT22;21906;50.812;7.132;2023-06-05T09:11:24;20.70;47.20
4107;DHT22;21906;50.812;7.132;2023-06-05T09:13:51;20.80;46.10
4107;DHT22;21906;50.812;7.132;2023-06-05T09:16:33;20.90;45.40
4107;DHT22;21906;50.812;7.132;2023-06-05T09:18:59;21.00;44.50
4107;DHT22;21906;50.812;7.132;2023-06-05T09:21:26;21.10;44.20
4107;DHT22;21906;50.812;7.132;2023-06-05T09:24:18;21.20;44.30
4107;DHT22;21906;50.812;7.132;2023-06-05T09:29:25;21.40;44.20
4107;DHT22;21906;50.812;7.132;2023-06-05T09:31:53;21.40;44.60
4107;DHT22;21906;50.812;7.132;2023-06-05T09:34:30;21.50;43.40
4107;DHT22;21906;50.812;7.132;2023-06-05T09:36:58;21.60;44.00
4107;DHT22;21906;50.812;7.132;2023-06-05T09:39:25;21.60;43.00
4107;DHT22;21906;50.812;7.132;2023-06-05T09:41:52;21.60;43.60
4107;DHT22;21906;50.812;7.132;2023-06-05T09:44:19;21.70;44.30
4107;DHT22;21906;50.812;7.132;2023-06-05T09:46:52;21.70;45.30
4107;DHT22;21906;50.812;7.132;2023-06-05T09:49:30;21.80;44.20
4107;DHT22;21906;50.812;7.132;2023-06-05T09:51:57;21.90;43.90
4107;DHT22;21906;50.812;7.132;2023-06-05T09:54:29;22.00;43.40
4107;DHT22;21906;50.812;7.132;2023-06-05T09:57:03;22.20;44.50
4107;DHT22;21906;50.812;7.132;2023-06-05T09:59:31;22.40;44.00
4107;DHT22;21906;50.812;7.132;2023-06-05T10:02:03;22.40;44.50
4107;DHT22;21906;50.812;7.132;2023-06-05T10:05:07;22.40;44.70
4107;DHT22;21906;50.812;7.132;2023-06-05T10:07:27;22.60;43.10
4107;DHT22;21906;50.812;7.132;2023-06-05T10:09:53;22.70;42.00
4107;DHT22;21906;50.812;7.132;2023-06-05T10:12:20;22.90;41.80
4107;DHT22;21906;50.812;7.132;2023-06-05T10:14:47;22.90;41.40
4107;DHT22;21906;50.812;7.132;2023-06-05T10:17:14;22.90;41.70
4107;DHT22;21906;50.812;7.132;2023-06-05T10:19:43;23.00;43.30
4107;DHT22;21906;50.812;7.132;2023-06-05T10:22:10;23.10;42.50
4107;DHT22;21906;50.812;7.132;2023-06-05T10:24:48;23.10;40.90
4107;DHT22;21906;50.812;7.132;2023-06-05T10:32:52;23.40;41.40
4107;DHT22;21906;50.812;7.132;2023-06-05T10:38:17;23.40;39.40
4107;DHT22;21906;50.812;7.132;2023-06-05T10:40:45;23.40;40.10
4107;DHT22;21906;50.812;7.132;2023-06-05T10:46:00;23.60;42.80
4107;DHT22;21906;50.812;7.132;2023-06-05T10:51:49;23.90;40.60
4107;DHT22;21906;50.812;7.132;2023-06-05T10:57:04;24.20;36.50
4107;DHT22;21906;50.812;7.132;2023-06-05T11:18:34;24.90;38.10
4107;DHT22;21906;50.812;7.132;2023-06-05T11:21:01;25.10;34.60
4107;DHT22;21906;50.812;7.132;2023-06-05T11:23:27;25.20;35.60
4107;DHT22;21906;50.812;7.132;2023-06-05T11:25:55;25.40;34.50
4107;DHT22;21906;50.812;7.132;2023-06-05T11:28:38;25.40;35.30
4107;DHT22;21906;50.812;7.132;2023-06-05T11:31:04;25.40;34.70
4107;DHT22;21906;50.812;7.132;2023-06-05T11:33:30;25.40;34.90
4107;DHT22;21906;50.812;7.132;2023-06-05T11:36:01;25.50;33.20
4107;DHT22;21906;50.812;7.132;2023-06-05T11:38:27;25.50;34.30
4107;DHT22;21906;50.812;7.132;2023-06-05T11:40:54;25.40;35.70
4107;DHT22;21906;50.812;7.132;2023-06-05T11:43:20;25.50;35.70
4107;DHT22;21906;50.812;7.132;2023-06-05T11:45:56;25.60;34.40
4107;DHT22;21906;50.812;7.132;2023-06-05T11:48:23;25.90;35.80
4107;DHT22;21906;50.812;7.132;2023-06-05T11:51:03;25.90;33.90
4107;DHT22;21906;50.812;7.132;2023-06-05T11:53:31;25.90;34.20
4107;DHT22;21906;50.812;7.132;2023-06-05T11:55:58;26.10;33.30
4107;DHT22;21906;50.812;7.132;2023-06-05T11:58:31;26.30;33.30
4107;DHT22;21906;50.812;7.132;2023-06-05T12:01:19;26.40;32.50
4107;DHT22;21906;50.812;7.132;2023-06-05T12:04:01;26.40;31.10
4107;DHT22;21906;50.812;7.132;2023-06-05T12:06:27;26.50;32.80
4107;DHT22;21906;50.812;7.132;2023-06-05T12:08:56;26.50;32.60
4107;DHT22;21906;50.812;7.132;2023-06-05T12:11:31;26.40;32.00
4107;DHT22;21906;50.812;7.132;2023-06-05T12:13:57;26.50;31.10
4107;DHT22;21906;50.812;7.132;2023-06-05T12:16:39;26.60;30.30
4107;DHT22;21906;50.812;7.132;2023-06-05T12:19:16;26.70;32.20
4107;DHT22;21906;50.812;7.132;2023-06-05T12:21:44;26.70;29.50
4107;DHT22;21906;50.812;7.132;2023-06-05T12:24:10;26.60;29.70
4107;DHT22;21906;50.812;7.132;2023-06-05T12:29:19;26.90;32.00
4107;DHT22;21906;50.812;7.132;2023-06-05T12:31:45;26.90;32.70
4107;DHT22;21906;50.812;7.132;2023-06-05T12:34:11;27.00;33.70
4107;DHT22;21906;50.812;7.132;2023-06-05T12:36:41;27.10;30.70
4107;DHT22;21906;50.812;7.132;2023-06-05T12:39:17;27.20;30.50
4107;DHT22;21906;50.812;7.132;2023-06-05T12:41:43;27.10;29.20
4107;DHT22;21906;50.812;7.132;2023-06-05T12:44:10;27.10;31.80
4107;DHT22;21906;50.812;7.132;2023-06-05T12:46:36;27.10;29.60
4107;DHT22;21906;50.812;7.132;2023-06-05T12:49:03;27.10;30.20
4107;DHT22;21906;50.812;7.132;2023-06-05T12:51:29;27.20;31.40
4107;DHT22;21906;50.812;7.132;2023-06-05T12:53:56;27.40;30.20
4107;DHT22;21906;50.812;7.132;2023-06-05T12:56:23;27.60;30.80
4107;DHT22;21906;50.812;7.132;2023-06-05T12:58:56;27.70;29.20
4107;DHT22;21906;50.812;7.132;2023-06-05T13:01:23;27.80;30.50
4107;DHT22;21906;50.812;7.132;2023-06-05T13:03:49;27.70;28.60
4107;DHT22;21906;50.812;7.132;2023-06-05T13:06:15;27.60;27.90
4107;DHT22;21906;50.812;7.132;2023-06-05T13:08:40;27.60;28.60
4107;DHT22;21906;50.812;7.132;2023-06-05T13:11:06;27.60;31.40
4107;DHT22;21906;50.812;7.132;2023-06-05T13:13:32;27.80;28.80
4107;DHT22;21906;50.812;7.132;2023-06-05T13:15:59;27.70;28.30
4107;DHT22;21906;50.812;7.132;2023-06-05T13:18:26;27.90;28.70
4107;DHT22;21906;50.812;7.132;2023-06-05T13:20:52;27.90;29.50
4107;DHT22;21906;50.812;7.132;2023-06-05T13:23:18;28.00;29.90
4107;DHT22;21906;50.812;7.132;2023-06-05T13:25:43;27.80;28.50
4107;DHT22;21906;50.812;7.132;2023-06-05T13:28:10;27.60;30.40
4107;DHT22;21906;50.812;7.132;2023-06-05T13:30:36;27.50;31.30
4107;DHT22;21906;50.812;7.132;2023-06-05T13:33:02;27.60;31.80
4107;DHT22;21906;50.812;7.132;2023-06-05T13:35:27;27.80;32.10
4107;DHT22;21906;50.812;7.132;2023-06-05T13:37:53;27.90;28.90
4107;DHT22;21906;50.812;7.132;2023-06-05T13:40:19;28.10;28.40
4107;DHT22;21906;50.812;7.132;2023-06-05T13:42:45;28.20;29.50
4107;DHT22;21906;50.812;7.132;2023-06-05T13:45:11;28.40;31.90
4107;DHT22;21906;50.812;7.132;2023-06-05T13:47:37;28.50;27.70
4107;DHT22;21906;50.812;7.132;2023-06-05T13:50:03;28.50;28.30
4107;DHT22;21906;50.812;7.132;2023-06-05T13:52:29;28.50;26.20
4107;DHT22;21906;50.812;7.132;2023-06-05T13:54:54;28.60;28.00
4107;DHT22;21906;50.812;7.132;2023-06-05T13:57:20;28.60;28.80
4107;DHT22;21906;50.812;7.132;2023-06-05T13:59:46;28.70;28.10
4107;DHT22;21906;50.812;7.132;2023-06-05T14:02:13;28.80;27.70
4107;DHT22;21906;50.812;7.132;2023-06-05T14:04:38;28.80;28.80
4107;DHT22;21906;50.812;7.132;2023-06-05T14:07:04;29.00;25.80
4107;DHT22;21906;50.812;7.132;2023-06-05T14:09:30;29.00;26.40
4107;DHT22;21906;50.812;7.132;2023-06-05T14:11:57;29.00;26.30
4107;DHT22;21906;50.812;7.132;2023-06-05T14:14:23;29.10;27.40
4107;DHT22;21906;50.812;7.132;2023-06-05T14:16:49;29.50;28.30
4107;DHT22;21906;50.812;7.132;2023-06-05T14:19:16;29.90;26.30
4107;DHT22;21906;50.812;7.132;2023-06-05T14:21:43;30.40;26.80
4107;DHT22;21906;50.812;7.132;2023-06-05T14:24:09;30.60;26.00
4107;DHT22;21906;50.812;7.132;2023-06-05T14:26:35;30.90;24.30
4107;DHT22;21906;50.812;7.132;2023-06-05T14:29:02;31.10;25.70
4107;DHT22;21906;50.812;7.132;2023-06-05T14:31:28;31.10;25.40
4107;DHT22;21906;50.812;7.132;2023-06-05T14:33:54;31.40;25.20
4107;DHT22;21906;50.812;7.132;2023-06-05T14:36:20;31.40;24.00
4107;DHT22;21906;50.812;7.132;2023-06-05T14:38:45;31.90;23.20
4107;DHT22;21906;50.812;7.132;2023-06-05T14:41:11;32.20;25.10
4107;DHT22;21906;50.812;7.132;2023-06-05T14:43:37;32.70;24.10
4107;DHT22;21906;50.812;7.132;2023-06-05T14:46:03;33.40;24.30
4107;DHT22;21906;50.812;7.132;2023-06-05T14:48:29;33.80;22.90
4107;DHT22;21906;50.812;7.132;2023-06-05T14:50:55;34.20;21.80
4107;DHT22;21906;50.812;7.132;2023-06-05T14:53:21;34.30;21.90
4107;DHT22;21906;50.812;7.132;2023-06-05T14:55:47;34.50;21.60
4107;DHT22;21906;50.812;7.132;2023-06-05T14:58:13;34.60;19.60
4107;DHT22;21906;50.812;7.132;2023-06-05T15:00:38;34.60;19.90
4107;DHT22;21906;50.812;7.132;2023-06-05T15:03:04;34.80;19.10
4107;DHT22;21906;50.812;7.132;2023-06-05T15:05:31;35.30;21.00
4107;DHT22;21906;50.812;7.132;2023-06-05T15:07:58;35.40;18.50
4107;DHT22;21906;50.812;7.132;2023-06-05T15:10:27;35.50;19.70
4107;DHT22;21906;50.812;7.132;2023-06-05T15:12:53;35.80;20.70
4107;DHT22;21906;50.812;7.132;2023-06-05T15:15:23;36.10;20.50
4107;DHT22;21906;50.812;7.132;2023-06-05T15:17:49;36.20;20.10
4107;DHT22;21906;50.812;7.132;2023-06-05T15:20:18;36.70;21.30
4107;DHT22;21906;50.812;7.132;2023-06-05T15:22:43;36.50;20.40
4107;DHT22;21906;50.812;7.132;2023-06-05T15:25:09;36.80;21.50
4107;DHT22;21906;50.812;7.132;2023-06-05T15:27:35;37.70;21.10
4107;DHT22;21906;50.812;7.132;2023-06-05T15:30:01;38.10;20.00
4107;DHT22;21906;50.812;7.132;2023-06-05T15:32:26;39.00;19.50
4107;DHT22;21906;50.812;7.132;2023-06-05T15:34:52;39.90;19.50
4107;DHT22;21906;50.812;7.132;2023-06-05T15:37:18;40.40;18.20
4107;DHT22;21906;50.812;7.132;2023-06-05T15:39:43;40.20;18.40
4107;DHT22;21906;50.812;7.132;2023-06-05T15:42:09;40.00;19.10
4107;DHT22;21906;50.812;7.132;2023-06-05T15:44:38;40.80;18.70
4107;DHT22;21906;50.812;7.132;2023-06-05T15:47:06;41.00;17.80
4107;DHT22;21906;50.812;7.132;2023-06-05T15:49:32;40.80;18.20
4107;DHT22;21906;50.812;7.132;2023-06-05T15:51:57;41.10;17.60
4107;DHT22;21906;50.812;7.132;2023-06-05T15:54:23;40.50;16.80
4107;DHT22;21906;50.812;7.132;2023-06-05T15:57:01;39.40;17.90
4107;DHT22;21906;50.812;7.132;2023-06-05T15:59:27;38.50;18.30
4107;DHT22;21906;50.812;7.132;2023-06-05T16:01:52;37.40;18.30
4107;DHT22;21906;50.812;7.132;2023-06-05T16:04:18;36.70;18.80
4107;DHT22;21906;50.812;7.132;2023-06-05T16:06:43;35.60;20.20
4107;DHT22;21906;50.812;7.132;2023-06-05T16:09:09;33.80;22.20
4107;DHT22;21906;50.812;7.132;2023-06-05T16:11:35;31.40;24.40
4107;DHT22;21906;50.812;7.132;2023-06-05T16:14:01;31.20;26.40
4107;DHT22;21906;50.812;7.132;2023-06-05T16:16:30;31.00;25.80
4107;DHT22;21906;50.812;7.132;2023-06-05T16:18:56;30.40;26.10
4107;DHT22;21906;50.812;7.132;2023-06-05T16:21:25;29.60;26.70
4107;DHT22;21906;50.812;7.132;2023-06-05T16:23:51;29.70;27.20
4107;DHT22;21906;50.812;7.132;2023-06-05T16:26:17;31.30;26.50
4107;DHT22;21906;50.812;7.132;2023-06-05T16:28:43;33.10;23.50